| time (UTC) | temp C | wind direction | speed KPH | gust KPH | rain 1hr cm | rain 24hr cm | rain mn cm | humidity % | barometer mb |
| 20260507213452 | 21 | 163 | 3.2 | 4.8 | 0.00 | 0.00 | 0.00 | 47 | 1013.1 |
| 20260507212948 | 20 | 284 | 4.8 | 9.7 | 0.00 | 0.00 | 0.00 | 45 | 1013.2 |
| 20260507212444 | 21 | 284 | 4.8 | 9.7 | 0.00 | 0.00 | 0.00 | 45 | 1013.2 |
| 20260507211942 | 21 | 210 | 11.3 | 14.5 | 0.00 | 0.00 | 0.00 | 44 | 1013.4 |
| 20260507211438 | 21 | 224 | 11.3 | 14.5 | 0.00 | 0.00 | 0.00 | 46 | 1013.4 |
| 20260507210935 | 20 | 238 | 4.8 | 11.3 | 0.00 | 0.00 | 0.00 | 46 | 1013.3 |
| 20260507210432 | 20 | 302 | 3.2 | 9.7 | 0.00 | 0.00 | 0.00 | 49 | 1013.7 |
| 20260507205928 | 20 | 278 | 6.4 | 11.3 | 0.00 | 0.00 | 0.00 | 47 | 1013.8 |
| 20260507205426 | 20 | 198 | 4.8 | 11.3 | 0.00 | 0.00 | 0.00 | 46 | 1013.7 |
| 20260507204922 | 21 | 214 | 3.2 | 6.4 | 0.00 | 0.00 | 0.00 | 48 | 1013.9 |
| 20260507204418 | 21 | 204 | 6.4 | 6.4 | 0.00 | 0.00 | 0.00 | 48 | 1014.1 |
| 20260507203916 | 20 | 286 | 1.6 | 9.7 | 0.00 | 0.00 | 0.00 | 48 | 1014.0 |
| 20260507203414 | 20 | 65 | 4.8 | 11.3 | 0.00 | 0.00 | 0.00 | 51 | 1014.2 |
| 20260507202910 | 20 | 229 | 8.0 | 11.3 | 0.00 | 0.00 | 0.00 | 48 | 1014.4 |
| 20260507202406 | 20 | 210 | 4.8 | 17.7 | 0.00 | 0.00 | 0.00 | 50 | 1014.4 |
| 20260507201902 | 20 | 197 | 9.7 | 14.5 | 0.00 | 0.00 | 0.00 | 48 | 1014.9 |
| 20260507201357 | 20 | 264 | 4.8 | 12.9 | 0.00 | 0.00 | 0.00 | 51 | 1014.4 |
| 20260507200854 | 19 | 30 | 3.2 | 12.9 | 0.00 | 0.00 | 0.00 | 52 | 1014.6 |
| 20260507200350 | 19 | 233 | 6.4 | 12.9 | 0.00 | 0.00 | 0.00 | 52 | 1014.8 |
| 20260507195846 | 19 | 206 | 6.4 | 9.7 | 0.00 | 0.00 | 0.00 | 51 | 1014.8 |
| 20260507195344 | 19 | 145 | 6.4 | 9.7 | 0.00 | 0.00 | 0.00 | 52 | 1014.8 |
| 20260507194841 | 18 | 230 | 3.2 | 11.3 | 0.00 | 0.00 | 0.00 | 52 | 1015.0 |
| 20260507194337 | 20 | 67 | 3.2 | 12.9 | 0.00 | 0.00 | 0.00 | 55 | 1015.0 |
| 20260507193834 | 18 | 298 | 3.2 | 6.4 | 0.00 | 0.00 | 0.00 | 56 | 1015.0 |
| 20260507193331 | 19 | 196 | 3.2 | 11.3 | 0.00 | 0.00 | 0.00 | 57 | 1014.9 |
| 20260507192827 | 19 | 211 | 8.0 | 12.9 | 0.00 | 0.00 | 0.00 | 51 | 1015.3 |
| 20260507192324 | 18 | 252 | 4.8 | 6.4 | 0.00 | 0.00 | 0.00 | 53 | 1015.1 |
| 20260507191820 | 18 | 276 | 6.4 | 6.4 | 0.00 | 0.00 | 0.00 | 53 | 1015.1 |
| 20260507191316 | 18 | 227 | 3.2 | 12.9 | 0.00 | 0.00 | 0.00 | 55 | 1015.3 |
| 20260507190813 | 18 | 303 | 3.2 | 12.9 | 0.00 | 0.00 | 0.00 | 55 | 1015.2 |
| 20260507190312 | 18 | 283 | 3.2 | 9.7 | 0.00 | 0.00 | 0.00 | 57 | 1015.4 |
| 20260507185810 | 17 | 22 | 3.2 | 12.9 | 0.00 | 0.00 | 0.00 | 56 | 1015.7 |
| 20260507185306 | 19 | 264 | 11.3 | 20.9 | 0.00 | 0.00 | 0.00 | 50 | 1015.5 |
| 20260507184804 | 18 | 265 | 4.8 | 14.5 | 0.00 | 0.00 | 0.00 | 52 | 1015.8 |
| 20260507184303 | 18 | 209 | 3.2 | 6.4 | 0.00 | 0.00 | 0.00 | 59 | 1015.8 |
| 20260507183759 | 18 | 261 | 6.4 | 12.9 | 0.00 | 0.00 | 0.00 | 54 | 1015.9 |
| 20260507183256 | 17 | 190 | 3.2 | 6.4 | 0.00 | 0.00 | 0.00 | 58 | 1016.1 |
| 20260507182754 | 18 | 240 | 9.7 | 14.5 | 0.00 | 0.00 | 0.00 | 54 | 1015.9 |
| 20260507182253 | 17 | 215 | 1.6 | 14.5 | 0.00 | 0.00 | 0.00 | 61 | 1016.1 |
| 20260507181751 | 18 | 312 | 4.8 | 17.7 | 0.00 | 0.00 | 0.00 | 55 | 1016.2 |
| 20260507181247 | 18 | 332 | 1.6 | 16.1 | 0.00 | 0.00 | 0.00 | 61 | 1016.2 |
| 20260507180744 | 17 | 217 | 4.8 | 14.5 | 0.00 | 0.00 | 0.00 | 57 | 1016.3 |
| 20260507180241 | 17 | 106 | 6.4 | 9.7 | 0.00 | 0.00 | 0.00 | 53 | 1016.4 |
| 20260507175736 | 18 | 291 | 6.4 | 9.7 | 0.00 | 0.00 | 0.00 | 55 | 1016.6 |
| 20260507175233 | 18 | 331 | 3.2 | 11.3 | 0.00 | 0.00 | 0.00 | 58 | 1016.4 |
| 20260507174731 | 18 | 235 | 3.2 | 11.3 | 0.00 | 0.00 | 0.00 | 61 | 1016.5 |
| 20260507174228 | 17 | 95 | 3.2 | 9.7 | 0.00 | 0.00 | 0.00 | 61 | 1016.6 |
| 20260507173726 | 18 | 346 | 6.4 | 17.7 | 0.00 | 0.00 | 0.00 | 55 | 1016.6 |
| 20260507173222 | 17 | 265 | 1.6 | 4.8 | 0.00 | 0.00 | 0.00 | 59 | 1016.7 |
| 20260507172719 | 17 | 311 | 6.4 | 9.7 | 0.00 | 0.00 | 0.00 | 56 | 1016.7 |
| 20260507172216 | 17 | 237 | 3.2 | 6.4 | 0.00 | 0.00 | 0.00 | 56 | 1016.7 |
| 20260507171716 | 17 | 275 | 3.2 | 12.9 | 0.00 | 0.00 | 0.00 | 56 | 1016.8 |
| 20260507171214 | 16 | 221 | 3.2 | 17.7 | 0.00 | 0.00 | 0.00 | 57 | 1016.9 |
| 20260507170710 | 16 | 291 | 12.9 | 22.5 | 0.00 | 0.00 | 0.00 | 57 | 1016.9 |
| 20260507170208 | 16 | 245 | 8.0 | 14.5 | 0.00 | 0.00 | 0.00 | 57 | 1017.1 |
| 20260507165703 | 17 | 171 | 9.7 | 11.3 | 0.00 | 0.00 | 0.00 | 55 | 1017.2 |
| 20260507165159 | 17 | 307 | 6.4 | 11.3 | 0.00 | 0.00 | 0.00 | 56 | 1017.2 |
| 20260507164655 | 17 | 252 | 6.4 | 12.9 | 0.00 | 0.00 | 0.00 | 56 | 1017.4 |
| 20260507164153 | 17 | 269 | 1.6 | 9.7 | 0.00 | 0.00 | 0.00 | 59 | 1017.4 |
| 20260507163650 | 18 | 185 | 6.4 | 11.3 | 0.00 | 0.00 | 0.00 | 56 | 1017.2 |
| 20260507163148 | 18 | 279 | 4.8 | 6.4 | 0.00 | 0.00 | 0.00 | 57 | 1017.4 |
| 20260507162643 | 18 | 302 | 3.2 | 4.8 | 0.00 | 0.00 | 0.00 | 56 | 1017.4 |
| 20260507162140 | 17 | 274 | 4.8 | 6.4 | 0.00 | 0.00 | 0.00 | 58 | 1017.5 |
| 20260507161636 | 16 | 252 | 1.6 | 11.3 | 0.00 | 0.00 | 0.00 | 58 | 1017.5 |
| 20260507161133 | 16 | 186 | 1.6 | 12.9 | 0.00 | 0.00 | 0.00 | 61 | 1017.4 |
| 20260507160629 | 16 | 292 | 3.2 | 12.9 | 0.00 | 0.00 | 0.00 | 61 | 1017.5 |
| 20260507160126 | 16 | 307 | 1.6 | 9.7 | 0.00 | 0.00 | 0.00 | 60 | 1017.3 |
| 20260507155621 | 16 | 236 | 4.8 | 12.9 | 0.00 | 0.00 | 0.00 | 59 | 1017.4 |
| 20260507155118 | 16 | 16 | 3.2 | 11.3 | 0.00 | 0.00 | 0.00 | 61 | 1017.6 |
| 20260507154615 | 16 | 250 | 4.8 | 6.4 | 0.00 | 0.00 | 0.00 | 58 | 1017.8 |
| 20260507154112 | 16 | 61 | 6.4 | 11.3 | 0.00 | 0.00 | 0.00 | 58 | 1017.9 |
| 20260507153609 | 16 | 32 | 4.8 | 4.8 | 0.00 | 0.00 | 0.00 | 62 | 1017.7 |
| 20260507153105 | 16 | 322 | 4.8 | 9.7 | 0.00 | 0.00 | 0.00 | 60 | 1017.8 |
| 20260507152602 | 16 | 226 | 4.8 | 14.5 | 0.00 | 0.00 | 0.00 | 58 | 1017.9 |
| 20260507152057 | 15 | 263 | 4.8 | 4.8 | 0.00 | 0.00 | 0.00 | 61 | 1017.9 |
| 20260507151554 | 16 | 211 | 6.4 | 9.7 | 0.00 | 0.00 | 0.00 | 59 | 1018.1 |
| 20260507151051 | 16 | 240 | 3.2 | 6.4 | 0.00 | 0.00 | 0.00 | 59 | 1017.9 |
| 20260507150548 | 15 | 296 | 3.2 | 4.8 | 0.00 | 0.00 | 0.00 | 61 | 1017.9 |
| 20260507150039 | 15 | 332 | 1.6 | 4.8 | 0.00 | 0.00 | 0.00 | 63 | 1017.9 |
| 20260507145533 | 16 | 355 | 1.6 | 12.9 | 0.00 | 0.00 | 0.00 | 59 | 1018.1 |
| 20260507145032 | 16 | 281 | 3.2 | 3.2 | 0.00 | 0.00 | 0.00 | 64 | 1018.1 |
| 20260507144528 | 15 | 292 | 4.8 | 6.4 | 0.00 | 0.00 | 0.00 | 61 | 1018.2 |
| 20260507144026 | 15 | 7 | 1.6 | 11.3 | 0.00 | 0.00 | 0.00 | 65 | 1017.8 |
| 20260507143522 | 15 | 218 | 3.2 | 6.4 | 0.00 | 0.00 | 0.00 | 62 | 1018.2 |
| 20260507143020 | 15 | 357 | 0.0 | 3.2 | 0.00 | 0.00 | 0.00 | 67 | 1018.2 |
| 20260507142515 | 14 | 206 | 3.2 | 9.7 | 0.00 | 0.00 | 0.00 | 64 | 1017.9 |
| 20260507142012 | 14 | 192 | 6.4 | 11.3 | 0.00 | 0.00 | 0.00 | 63 | 1017.9 |
| 20260507141508 | 15 | 40 | 1.6 | 11.3 | 0.00 | 0.00 | 0.00 | 65 | 1018.1 |
| 20260507141007 | 15 | 61 | 1.6 | 1.6 | 0.00 | 0.00 | 0.00 | 67 | 1018.3 |
| 20260507140502 | 14 | 226 | 1.6 | 3.2 | 0.00 | 0.00 | 0.00 | 67 | 1018.2 |
| 20260507135959 | 13 | 343 | 1.6 | 11.3 | 0.00 | 0.00 | 0.00 | 69 | 1018.4 |
| 20260507135456 | 13 | 291 | 1.6 | 3.2 | 0.00 | 0.00 | 0.00 | 69 | 1018.3 |
| 20260507134953 | 12 | 281 | 3.2 | 4.8 | 0.00 | 0.00 | 0.00 | 71 | 1018.2 |
| 20260507134449 | 12 | 358 | 1.6 | 3.2 | 0.00 | 0.00 | 0.00 | 70 | 1018.2 |
| 20260507133946 | 12 | 329 | 3.2 | 4.8 | 0.00 | 0.00 | 0.00 | 73 | 1018.4 |
| 20260507133442 | 11 | 217 | 3.2 | 4.8 | 0.00 | 0.00 | 0.00 | 73 | 1018.3 |
| 20260507132941 | 11 | 288 | 3.2 | 3.2 | 0.00 | 0.00 | 0.00 | 73 | 1018.3 |
| 20260507132436 | 11 | 18 | 4.8 | 4.8 | 0.00 | 0.00 | 0.00 | 74 | 1018.3 |
| 20260507131933 | 11 | 30 | 0.0 | 4.8 | 0.00 | 0.00 | 0.00 | 75 | 1018.3 |
| 20260507131430 | 11 | 354 | 1.6 | 3.2 | 0.00 | 0.00 | 0.00 | 74 | 1018.3 |
| 20260507130927 | 11 | 295 | 1.6 | 3.2 | 0.00 | 0.00 | 0.00 | 73 | 1018.4 |
| 20260507130424 | 10 | 1 | 0.0 | 3.2 | 0.00 | 0.00 | 0.00 | 76 | 1018.4 |
| 20260507125923 | 10 | 186 | 4.8 | 6.4 | 0.00 | 0.00 | 0.00 | 75 | 1018.6 |
| 20260507125420 | 10 | 0 | 0.0 | 3.2 | 0.00 | 0.00 | 0.00 | 77 | 1018.4 |
| 20260507124918 | 9 | 357 | 0.0 | 1.6 | 0.00 | 0.00 | 0.00 | 78 | 1018.7 |
| 20260507124413 | 9 | 348 | 1.6 | 1.6 | 0.00 | 0.00 | 0.00 | 78 | 1018.5 |
| 20260507123912 | 8 | 332 | 1.6 | 3.2 | 0.00 | 0.00 | 0.00 | 78 | 1018.4 |
| 20260507123409 | 8 | 354 | 0.0 | 1.6 | 0.00 | 0.00 | 0.00 | 79 | 1018.4 |
| 20260507122905 | 8 | 345 | 0.0 | 1.6 | 0.00 | 0.00 | 0.00 | 81 | 1018.4 |
| 20260507122400 | 7 | 346 | 0.0 | 1.6 | 0.00 | 0.00 | 0.00 | 81 | 1018.5 |
| 20260507121857 | 7 | 344 | 0.0 | 1.6 | 0.00 | 0.00 | 0.00 | 82 | 1018.4 |
| 20260507121352 | 6 | 343 | 0.0 | 1.6 | 0.00 | 0.00 | 0.00 | 84 | 1018.5 |
| 20260507120849 | 5 | 343 | 0.0 | 0.0 | 0.00 | 0.00 | 0.00 | 89 | 1018.5 |
| 20260507120346 | 5 | 351 | 0.0 | 0.0 | 0.00 | 0.00 | 0.00 | 90 | 1018.7 |
| 20260507115842 | 5 | 349 | 0.0 | 0.0 | 0.00 | 0.00 | 0.00 | 90 | 1018.5 |
| 20260507115338 | 4 | 345 | 0.0 | 0.0 | 0.00 | 0.00 | 0.00 | 90 | 1018.4 |
| 20260507114833 | 4 | 352 | 0.0 | 0.0 | 0.00 | 0.00 | 0.00 | 90 | 1018.5 |
| 20260507114331 | 4 | 353 | 0.0 | 0.0 | 0.00 | 0.00 | 0.00 | 90 | 1018.4 |
| 20260507113828 | 4 | 353 | 0.0 | 0.0 | 0.00 | 0.00 | 0.00 | 90 | 1018.5 |
| 20260507113325 | 4 | 351 | 0.0 | 0.0 | 0.00 | 0.00 | 0.00 | 90 | 1018.4 |
| 20260507112823 | 4 | 351 | 0.0 | 0.0 | 0.00 | 0.00 | 0.00 | 89 | 1018.3 |
| 20260507112319 | 4 | 351 | 0.0 | 0.0 | 0.00 | 0.00 | 0.00 | 89 | 1018.3 |
| 20260507111818 | 4 | 351 | 0.0 | 0.0 | 0.00 | 0.00 | 0.00 | 88 | 1018.2 |
| 20260507111314 | 5 | 351 | 0.0 | 0.0 | 0.00 | 0.00 | 0.00 | 88 | 1018.2 |
| 20260507110810 | 5 | 351 | 0.0 | 0.0 | 0.00 | 0.00 | 0.00 | 87 | 1018.1 |
| 20260507110307 | 5 | 350 | 0.0 | 0.0 | 0.00 | 0.00 | 0.00 | 87 | 1018.3 |
| 20260507105804 | 5 | 351 | 0.0 | 0.0 | 0.00 | 0.00 | 0.00 | 86 | 1018.1 |
| 20260507105301 | 5 | 348 | 0.0 | 0.0 | 0.00 | 0.00 | 0.00 | 86 | 1017.9 |
| 20260507104758 | 5 | 345 | 0.0 | 0.0 | 0.00 | 0.00 | 0.00 | 87 | 1018.1 |
| 20260507104254 | 5 | 353 | 0.0 | 0.0 | 0.00 | 0.00 | 0.00 | 88 | 1017.9 |
| 20260507103750 | 5 | 353 | 0.0 | 0.0 | 0.00 | 0.00 | 0.00 | 88 | 1017.9 |
| 20260507103246 | 5 | 353 | 0.0 | 0.0 | 0.00 | 0.00 | 0.00 | 87 | 1018.2 |
| 20260507102743 | 5 | 352 | 0.0 | 0.0 | 0.00 | 0.00 | 0.00 | 87 | 1018.2 |
| 20260507102239 | 5 | 353 | 0.0 | 0.0 | 0.00 | 0.00 | 0.00 | 87 | 1018.2 |
| 20260507101735 | 5 | 353 | 0.0 | 0.0 | 0.00 | 0.00 | 0.00 | 86 | 1018.2 |
| 20260507101230 | 5 | 353 | 0.0 | 0.0 | 0.00 | 0.00 | 0.00 | 86 | 1018.1 |
| 20260507100727 | 5 | 353 | 0.0 | 0.0 | 0.00 | 0.00 | 0.00 | 85 | 1018.1 |
| 20260507100226 | 5 | 355 | 0.0 | 0.0 | 0.00 | 0.00 | 0.00 | 84 | 1018.3 |
| 20260507095724 | 5 | 350 | 0.0 | 0.0 | 0.00 | 0.00 | 0.00 | 83 | 1018.2 |
| 20260507095220 | 6 | 354 | 0.0 | 0.0 | 0.00 | 0.00 | 0.00 | 83 | 1018.4 |
| 20260507094717 | 6 | 352 | 0.0 | 0.0 | 0.00 | 0.00 | 0.00 | 82 | 1018.3 |
| 20260507094214 | 6 | 350 | 0.0 | 0.0 | 0.00 | 0.00 | 0.00 | 81 | 1018.4 |
| 20260507093711 | 6 | 352 | 0.0 | 0.0 | 0.00 | 0.00 | 0.00 | 83 | 1018.4 |
| 20260507093209 | 6 | 352 | 0.0 | 0.0 | 0.00 | 0.00 | 0.00 | 82 | 1018.3 |
| 20260507092706 | 5 | 351 | 0.0 | 0.0 | 0.00 | 0.00 | 0.00 | 83 | 1018.5 |
| 20260507092202 | 5 | 349 | 0.0 | 0.0 | 0.00 | 0.00 | 0.00 | 84 | 1018.4 |
| 20260507091659 | 5 | 349 | 0.0 | 0.0 | 0.00 | 0.00 | 0.00 | 88 | 1018.5 |
| 20260507091155 | 4 | 353 | 0.0 | 0.0 | 0.00 | 0.00 | 0.00 | 90 | 1018.5 |
| 20260507090651 | 4 | 348 | 0.0 | 0.0 | 0.00 | 0.00 | 0.00 | 90 | 1018.6 |
| 20260507090148 | 4 | 351 | 0.0 | 0.0 | 0.00 | 0.00 | 0.00 | 90 | 1018.6 |
| 20260507085645 | 4 | 353 | 0.0 | 0.0 | 0.00 | 0.00 | 0.00 | 90 | 1018.5 |
| 20260507085142 | 4 | 351 | 0.0 | 0.0 | 0.00 | 0.00 | 0.00 | 91 | 1018.6 |
| 20260507084639 | 3 | 352 | 0.0 | 0.0 | 0.00 | 0.00 | 0.00 | 91 | 1018.4 |
| 20260507084135 | 3 | 350 | 0.0 | 0.0 | 0.00 | 0.00 | 0.00 | 92 | 1018.4 |
| 20260507083632 | 3 | 353 | 0.0 | 0.0 | 0.00 | 0.00 | 0.00 | 92 | 1018.4 |
| 20260507083129 | 3 | 348 | 0.0 | 0.0 | 0.00 | 0.00 | 0.00 | 92 | 1018.5 |
| 20260507082625 | 3 | 348 | 0.0 | 0.0 | 0.00 | 0.00 | 0.00 | 92 | 1018.6 |
| 20260507082121 | 3 | 352 | 0.0 | 0.0 | 0.00 | 0.00 | 0.00 | 92 | 1018.6 |
| 20260507081618 | 3 | 352 | 0.0 | 0.0 | 0.00 | 0.00 | 0.00 | 93 | 1018.7 |
| 20260507081115 | 4 | 352 | 0.0 | 0.0 | 0.00 | 0.00 | 0.00 | 93 | 1018.7 |
| 20260507080611 | 4 | 352 | 0.0 | 0.0 | 0.00 | 0.00 | 0.00 | 93 | 1018.4 |
| 20260507080108 | 4 | 352 | 0.0 | 0.0 | 0.00 | 0.00 | 0.00 | 92 | 1018.5 |
| 20260507075602 | 4 | 352 | 0.0 | 0.0 | 0.00 | 0.00 | 0.00 | 92 | 1018.4 |
| 20260507075059 | 4 | 352 | 0.0 | 0.0 | 0.00 | 0.00 | 0.00 | 92 | 1018.4 |
| 20260507074556 | 4 | 352 | 0.0 | 0.0 | 0.00 | 0.00 | 0.00 | 91 | 1018.6 |
| 20260507074054 | 5 | 352 | 0.0 | 0.0 | 0.00 | 0.00 | 0.00 | 90 | 1018.6 |
| 20260507073550 | 5 | 352 | 0.0 | 0.0 | 0.00 | 0.00 | 0.00 | 90 | 1018.3 |
| 20260507073047 | 5 | 351 | 0.0 | 0.0 | 0.00 | 0.00 | 0.00 | 88 | 1018.6 |
| 20260507072544 | 5 | 351 | 0.0 | 0.0 | 0.00 | 0.00 | 0.00 | 87 | 1018.7 |
| 20260507072041 | 5 | 352 | 0.0 | 0.0 | 0.00 | 0.00 | 0.00 | 86 | 1018.6 |
| 20260507071539 | 5 | 352 | 0.0 | 0.0 | 0.00 | 0.00 | 0.00 | 86 | 1018.8 |
| 20260507071035 | 5 | 352 | 0.0 | 0.0 | 0.00 | 0.00 | 0.00 | 88 | 1018.8 |
| 20260507070532 | 5 | 352 | 0.0 | 0.0 | 0.00 | 0.00 | 0.00 | 88 | 1018.9 |
| 20260507070030 | 6 | 350 | 0.0 | 0.0 | 0.00 | 0.00 | 0.00 | 88 | 1019.0 |
| 20260507065526 | 6 | 351 | 0.0 | 0.0 | 0.00 | 0.00 | 0.00 | 88 | 1018.9 |
| 20260507065023 | 6 | 351 | 0.0 | 0.0 | 0.00 | 0.00 | 0.00 | 87 | 1019.1 |
| 20260507064521 | 6 | 351 | 0.0 | 0.0 | 0.00 | 0.00 | 0.00 | 87 | 1019.1 |
| 20260507064019 | 6 | 351 | 0.0 | 0.0 | 0.00 | 0.00 | 0.00 | 87 | 1019.1 |
| 20260507063516 | 6 | 351 | 0.0 | 0.0 | 0.00 | 0.00 | 0.00 | 87 | 1019.2 |
| 20260507063013 | 6 | 351 | 0.0 | 0.0 | 0.00 | 0.00 | 0.00 | 86 | 1019.1 |
| 20260507062510 | 6 | 351 | 0.0 | 0.0 | 0.00 | 0.00 | 0.00 | 87 | 1019.2 |
| 20260507062008 | 6 | 351 | 0.0 | 0.0 | 0.00 | 0.00 | 0.00 | 87 | 1019.1 |
| 20260507061505 | 6 | 351 | 0.0 | 0.0 | 0.00 | 0.00 | 0.00 | 88 | 1019.3 |
| 20260507061003 | 6 | 351 | 0.0 | 0.0 | 0.00 | 0.00 | 0.00 | 87 | 1019.2 |
| 20260507060500 | 6 | 351 | 0.0 | 0.0 | 0.00 | 0.00 | 0.00 | 86 | 1019.2 |
| 20260507055956 | 6 | 351 | 0.0 | 0.0 | 0.00 | 0.00 | 0.00 | 86 | 1019.3 |
| 20260507055451 | 6 | 354 | 0.0 | 0.0 | 0.00 | 0.00 | 0.00 | 86 | 1019.2 |
| 20260507054949 | 5 | 353 | 0.0 | 0.0 | 0.00 | 0.00 | 0.00 | 89 | 1019.4 |
| 20260507054444 | 5 | 353 | 0.0 | 0.0 | 0.00 | 0.00 | 0.00 | 91 | 1019.3 |
| 20260507053942 | 5 | 353 | 0.0 | 0.0 | 0.00 | 0.00 | 0.00 | 91 | 1019.4 |
| 20260507053440 | 5 | 353 | 0.0 | 0.0 | 0.00 | 0.00 | 0.00 | 91 | 1019.2 |
| 20260507052938 | 5 | 353 | 0.0 | 0.0 | 0.00 | 0.00 | 0.00 | 91 | 1019.3 |
| 20260507052435 | 5 | 353 | 0.0 | 0.0 | 0.00 | 0.00 | 0.00 | 91 | 1019.4 |
| 20260507051932 | 4 | 353 | 0.0 | 0.0 | 0.00 | 0.00 | 0.00 | 91 | 1019.2 |
| 20260507051430 | 4 | 353 | 0.0 | 0.0 | 0.00 | 0.00 | 0.00 | 90 | 1019.3 |
| 20260507050926 | 4 | 353 | 0.0 | 0.0 | 0.00 | 0.00 | 0.00 | 91 | 1019.3 |
| 20260507050423 | 4 | 353 | 0.0 | 0.0 | 0.00 | 0.00 | 0.00 | 91 | 1019.3 |
| 20260507045920 | 4 | 353 | 0.0 | 0.0 | 0.00 | 0.05 | 0.05 | 91 | 1019.3 |
| 20260507045416 | 4 | 353 | 0.0 | 0.0 | 0.00 | 0.05 | 0.05 | 91 | 1019.4 |
| 20260507044914 | 5 | 353 | 0.0 | 0.0 | 0.00 | 0.05 | 0.05 | 91 | 1019.5 |
| 20260507044410 | 5 | 353 | 0.0 | 0.0 | 0.00 | 0.05 | 0.05 | 90 | 1019.5 |
| 20260507043906 | 5 | 353 | 0.0 | 0.0 | 0.00 | 0.05 | 0.05 | 90 | 1019.4 |
| 20260507043403 | 5 | 353 | 0.0 | 0.0 | 0.00 | 0.05 | 0.05 | 90 | 1019.3 |
| 20260507042859 | 5 | 353 | 0.0 | 0.0 | 0.00 | 0.05 | 0.05 | 88 | 1019.4 |
| 20260507042356 | 5 | 353 | 0.0 | 0.0 | 0.00 | 0.05 | 0.05 | 88 | 1019.3 |
| 20260507041852 | 5 | 353 | 0.0 | 0.0 | 0.00 | 0.05 | 0.05 | 88 | 1019.3 |
| 20260507041348 | 5 | 353 | 0.0 | 0.0 | 0.00 | 0.05 | 0.05 | 87 | 1019.2 |
| 20260507040846 | 5 | 353 | 0.0 | 0.0 | 0.00 | 0.05 | 0.05 | 86 | 1019.3 |
| 20260507040342 | 5 | 353 | 0.0 | 0.0 | 0.00 | 0.05 | 0.05 | 86 | 1019.7 |
| 20260507035838 | 5 | 353 | 0.0 | 0.0 | 0.00 | 0.05 | 0.05 | 85 | 1019.6 |
| 20260507035333 | 5 | 353 | 0.0 | 0.0 | 0.00 | 0.05 | 0.05 | 85 | 1019.7 |
| 20260507034831 | 5 | 353 | 0.0 | 0.0 | 0.00 | 0.05 | 0.05 | 84 | 1019.8 |
| 20260507034328 | 5 | 353 | 0.0 | 0.0 | 0.00 | 0.05 | 0.05 | 83 | 1019.8 |
| 20260507033826 | 5 | 352 | 0.0 | 0.0 | 0.00 | 0.05 | 0.05 | 83 | 1019.5 |
| 20260507033324 | 5 | 352 | 0.0 | 0.0 | 0.00 | 0.05 | 0.05 | 83 | 1019.3 |
| 20260507032821 | 5 | 352 | 0.0 | 0.0 | 0.00 | 0.05 | 0.05 | 83 | 1019.4 |
| 20260507032317 | 6 | 353 | 0.0 | 0.0 | 0.00 | 0.05 | 0.05 | 82 | 1019.4 |
| 20260507031814 | 6 | 354 | 0.0 | 0.0 | 0.00 | 0.05 | 0.05 | 81 | 1019.4 |
| 20260507031311 | 6 | 353 | 0.0 | 0.0 | 0.00 | 0.05 | 0.05 | 78 | 1019.4 |
| 20260507030807 | 6 | 353 | 0.0 | 0.0 | 0.00 | 0.05 | 0.05 | 78 | 1019.4 |
| 20260507030305 | 6 | 353 | 0.0 | 0.0 | 0.00 | 0.05 | 0.05 | 78 | 1019.4 |
| 20260507025802 | 6 | 353 | 0.0 | 0.0 | 0.00 | 0.05 | 0.05 | 77 | 1019.4 |
| 20260507025259 | 6 | 353 | 0.0 | 0.0 | 0.00 | 0.05 | 0.05 | 76 | 1019.3 |
| 20260507024757 | 6 | 353 | 0.0 | 0.0 | 0.00 | 0.05 | 0.05 | 76 | 1019.3 |
| 20260507024254 | 6 | 353 | 0.0 | 0.0 | 0.00 | 0.05 | 0.05 | 75 | 1019.4 |
| 20260507023749 | 6 | 353 | 0.0 | 0.0 | 0.00 | 0.05 | 0.05 | 74 | 1019.2 |
| 20260507023246 | 7 | 353 | 0.0 | 0.0 | 0.00 | 0.05 | 0.05 | 73 | 1019.2 |
| 20260507022744 | 7 | 353 | 0.0 | 0.0 | 0.00 | 0.05 | 0.05 | 72 | 1019.1 |
| 20260507022240 | 7 | 353 | 0.0 | 0.0 | 0.00 | 0.05 | 0.05 | 71 | 1019.1 |
| 20260507021736 | 7 | 353 | 0.0 | 0.0 | 0.00 | 0.05 | 0.05 | 69 | 1019.1 |
| 20260507021232 | 7 | 353 | 0.0 | 0.0 | 0.00 | 0.05 | 0.05 | 68 | 1019.2 |
| 20260507020730 | 8 | 354 | 0.0 | 0.0 | 0.00 | 0.05 | 0.05 | 65 | 1019.0 |
| 20260507020226 | 8 | 354 | 0.0 | 0.0 | 0.00 | 0.05 | 0.05 | 64 | 1018.9 |
| 20260507015723 | 8 | 354 | 0.0 | 0.0 | 0.00 | 0.05 | 0.05 | 61 | 1018.8 |
| 20260507015221 | 8 | 354 | 0.0 | 0.0 | 0.00 | 0.05 | 0.05 | 59 | 1018.9 |
| 20260507014717 | 9 | 354 | 0.0 | 0.0 | 0.00 | 0.05 | 0.05 | 57 | 1018.8 |
| 20260507014214 | 9 | 354 | 0.0 | 0.0 | 0.00 | 0.05 | 0.05 | 56 | 1018.9 |
| 20260507013711 | 10 | 354 | 0.0 | 0.0 | 0.00 | 0.05 | 0.05 | 56 | 1018.9 |
| 20260507013208 | 10 | 351 | 0.0 | 0.0 | 0.00 | 0.05 | 0.05 | 51 | 1018.9 |
| 20260507012705 | 10 | 351 | 0.0 | 0.0 | 0.00 | 0.05 | 0.05 | 51 | 1018.8 |
| 20260507012201 | 11 | 354 | 0.0 | 0.0 | 0.00 | 0.05 | 0.05 | 49 | 1018.6 |
| 20260507011658 | 11 | 353 | 0.0 | 0.0 | 0.00 | 0.05 | 0.05 | 50 | 1018.6 |
| 20260507011154 | 11 | 352 | 0.0 | 0.0 | 0.00 | 0.05 | 0.05 | 45 | 1018.6 |
| 20260507010649 | 12 | 353 | 0.0 | 0.0 | 0.00 | 0.05 | 0.05 | 46 | 1018.6 |
| 20260507010145 | 12 | 350 | 0.0 | 0.0 | 0.00 | 0.05 | 0.05 | 45 | 1018.5 |
| 20260507005643 | 12 | 352 | 0.0 | 0.0 | 0.00 | 0.05 | 0.05 | 45 | 1018.6 |
| 20260507005139 | 12 | 347 | 0.0 | 1.6 | 0.00 | 0.05 | 0.05 | 44 | 1018.4 |
| 20260507004636 | 13 | 355 | 0.0 | 1.6 | 0.00 | 0.05 | 0.05 | 43 | 1018.4 |
| 20260507004133 | 13 | 291 | 1.6 | 3.2 | 0.00 | 0.05 | 0.05 | 48 | 1018.5 |
| 20260507003630 | 13 | 350 | 0.0 | 0.0 | 0.00 | 0.05 | 0.05 | 42 | 1018.5 |
| 20260507003130 | 13 | 348 | 1.6 | 3.2 | 0.00 | 0.05 | 0.05 | 42 | 1018.5 |
| 20260507002626 | 13 | 357 | 0.0 | 0.0 | 0.00 | 0.05 | 0.05 | 41 | 1018.6 |
| 20260507002122 | 13 | 11 | 0.0 | 0.0 | 0.00 | 0.05 | 0.05 | 40 | 1018.5 |
| 20260507001619 | 13 | 14 | 3.2 | 3.2 | 0.00 | 0.05 | 0.05 | 41 | 1018.6 |
| 20260507001117 | 13 | 352 | 0.0 | 4.8 | 0.00 | 0.05 | 0.05 | 39 | 1018.5 |
| 20260507000613 | 13 | 350 | 0.0 | 1.6 | 0.00 | 0.05 | 0.05 | 40 | 1018.3 |
| 20260507000108 | 14 | 356 | 1.6 | 4.8 | 0.00 | 0.05 | 0.05 | 40 | 1018.4 |
| 20260506235606 | 14 | 46 | 3.2 | 3.2 | 0.00 | 0.05 | 0.05 | 39 | 1018.4 |
| 20260506235106 | 15 | 5 | 0.0 | 3.2 | 0.00 | 0.05 | 0.05 | 38 | 1018.5 |
| 20260506234604 | 15 | 5 | 0.0 | 3.2 | 0.00 | 0.05 | 0.05 | 38 | 1018.5 |
| 20260506234101 | 15 | 357 | 0.0 | 1.6 | 0.00 | 0.05 | 0.05 | 42 | 1018.6 |
| 20260506233557 | 15 | 352 | 0.0 | 1.6 | 0.00 | 0.05 | 0.05 | 40 | 1018.6 |
| 20260506233054 | 15 | 352 | 0.0 | 0.0 | 0.00 | 0.05 | 0.05 | 43 | 1018.5 |
| 20260506232550 | 15 | 354 | 1.6 | 11.3 | 0.00 | 0.05 | 0.05 | 37 | 1018.6 |
| 20260506232046 | 15 | 353 | 1.6 | 3.2 | 0.00 | 0.05 | 0.05 | 39 | 1018.5 |
| 20260506231544 | 15 | 287 | 3.2 | 4.8 | 0.00 | 0.05 | 0.05 | 42 | 1018.6 |
| 20260506231042 | 15 | 6 | 1.6 | 4.8 | 0.00 | 0.05 | 0.05 | 40 | 1018.3 |
| 20260506230538 | 15 | 349 | 0.0 | 4.8 | 0.00 | 0.05 | 0.05 | 40 | 1018.5 |
| 20260506230035 | 15 | 354 | 3.2 | 9.7 | 0.00 | 0.05 | 0.05 | 37 | 1018.3 |
| 20260506225532 | 15 | 355 | 0.0 | 3.2 | 0.00 | 0.05 | 0.05 | 40 | 1018.5 |
| 20260506225028 | 15 | 327 | 3.2 | 3.2 | 0.00 | 0.05 | 0.05 | 39 | 1018.6 |
| 20260506224525 | 15 | 346 | 1.6 | 3.2 | 0.00 | 0.05 | 0.05 | 40 | 1018.4 |
| 20260506224022 | 15 | 350 | 3.2 | 3.2 | 0.00 | 0.05 | 0.05 | 40 | 1018.5 |
| 20260506223517 | 15 | 7 | 0.0 | 1.6 | 0.00 | 0.05 | 0.05 | 39 | 1018.6 |
| 20260506223014 | 15 | 0 | 1.6 | 4.8 | 0.00 | 0.05 | 0.05 | 38 | 1018.5 |
| 20260506222511 | 15 | 357 | 0.0 | 6.4 | 0.00 | 0.05 | 0.05 | 40 | 1018.5 |
| 20260506222007 | 15 | 17 | 3.2 | 11.3 | 0.00 | 0.05 | 0.05 | 39 | 1018.6 |
| 20260506221505 | 15 | 14 | 0.0 | 3.2 | 0.00 | 0.05 | 0.05 | 40 | 1018.4 |
| 20260506221003 | 15 | 67 | 0.0 | 9.7 | 0.00 | 0.05 | 0.05 | 41 | 1018.6 |
| 20260506220458 | 16 | 356 | 4.8 | 6.4 | 0.00 | 0.05 | 0.05 | 38 | 1018.8 |
| 20260506215955 | 16 | 83 | 4.8 | 9.7 | 0.00 | 0.05 | 0.05 | 37 | 1018.7 |
| 20260506215451 | 16 | 8 | 0.0 | 4.8 | 0.00 | 0.05 | 0.05 | 39 | 1018.7 |
| 20260506214947 | 16 | 32 | 1.6 | 4.8 | 0.00 | 0.05 | 0.05 | 36 | 1018.6 |
| 20260506214444 | 15 | 5 | 1.6 | 11.3 | 0.00 | 0.05 | 0.05 | 39 | 1018.8 |
| 20260506213942 | 16 | 351 | 6.4 | 11.3 | 0.00 | 0.05 | 0.05 | 37 | 1019.0 |